Time;durP1;ratioP1;P1;durP2;ratioP2;P2;SDS_P1;SDS_P2;PMS_P1;PMS_P2;Temp;Humidity;BMP_temperature;BMP_pressure;BME280_temperature;BME280_humidity;BME280_pressure;Samples;Min_cycle;Max_cycle;Signal;HPM_P1;HPM_P2
2022/04/02 00:01:40;;;;;;;1.80;1.70;;;2.90;99.90;;;;;;5110583;27;20223;-74
2022/04/02 00:04:10;;;;;;;3.15;2.40;;;2.90;99.90;;;;;;5102195;28;20308;-73
2022/04/02 00:06:39;;;;;;;2.42;2.20;;;2.90;99.90;;;;;;5102576;28;20215;-74
2022/04/02 00:09:06;;;;;;;5.50;2.03;;;2.90;99.90;;;;;;5101327;27;20230;-75
2022/04/02 00:11:34;;;;;;;2.08;1.80;;;2.90;99.90;;;;;;5102100;28;20311;-74
2022/04/02 00:14:02;;;;;;;2.53;2.22;;;2.90;99.90;;;;;;5102237;28;20234;-73
2022/04/02 00:16:30;;;;;;;2.10;1.85;;;3.00;99.90;;;;;;5101938;28;20200;-73
2022/04/02 00:18:58;;;;;;;3.85;2.40;;;3.00;99.90;;;;;;5102003;28;20436;-73
2022/04/02 00:21:27;;;;;;;4.50;2.75;;;3.00;99.90;;;;;;5118875;27;20227;-74
2022/04/02 00:23:55;;;;;;;3.10;1.85;;;3.00;99.90;;;;;;5122207;27;20195;-73
2022/04/02 00:26:24;;;;;;;2.30;2.10;;;3.00;99.90;;;;;;5121670;27;20276;-72
2022/04/02 00:28:52;;;;;;;3.50;2.70;;;3.00;99.90;;;;;;5123375;27;20195;-72
2022/04/02 00:31:22;;;;;;;4.95;3.25;;;3.00;99.90;;;;;;5121883;27;20294;-73
2022/04/02 00:33:51;;;;;;;2.67;2.10;;;2.90;99.90;;;;;;5122220;27;20197;-72
2022/04/02 00:36:21;;;;;;;2.70;2.50;;;2.90;99.90;;;;;;5121148;27;20584;-72
2022/04/02 00:38:50;;;;;;;2.95;1.90;;;2.90;99.90;;;;;;5121455;27;20255;-73
2022/04/02 00:41:18;;;;;;;3.38;3.03;;;2.90;99.90;;;;;;5121380;27;20258;-72
2022/04/02 00:43:58;;;;;;;3.55;1.77;;;2.90;99.90;;;;;;5121885;27;20229;-72
2022/04/02 00:46:26;;;;;;;5.22;2.58;;;3.00;99.90;;;;;;5121559;27;20729;-72
2022/04/02 00:48:54;;;;;;;1.85;1.75;;;2.90;99.90;;;;;;5121521;27;20682;-74
2022/04/02 00:51:23;;;;;;;2.45;2.25;;;3.00;99.90;;;;;;5120974;27;20792;-74
2022/04/02 00:53:52;;;;;;;7.07;2.33;;;3.00;99.90;;;;;;5123516;27;20195;-74
2022/04/02 00:56:21;;;;;;;2.55;2.15;;;3.00;99.90;;;;;;5121450;27;20297;-74
2022/04/02 00:58:49;;;;;;;6.03;3.72;;;3.10;99.90;;;;;;5121865;27;20730;-71
2022/04/02 01:01:17;;;;;;;2.85;2.65;;;3.10;99.90;;;;;;5121829;27;20410;-71
2022/04/02 01:03:45;;;;;;;2.53;2.00;;;3.10;99.90;;;;;;5121297;27;20283;-72
2022/04/02 01:06:13;;;;;;;6.50;2.30;;;3.10;99.90;;;;;;5121258;27;20582;-71
2022/04/02 01:08:41;;;;;;;3.35;2.40;;;3.10;99.90;;;;;;5121689;27;20459;-73
2022/04/02 01:11:10;;;;;;;3.55;2.88;;;3.10;99.90;;;;;;5121394;27;20219;-73
2022/04/02 01:13:38;;;;;;;2.65;2.30;;;3.10;99.90;;;;;;5133151;27;20282;-72
2022/04/02 01:16:06;;;;;;;4.10;2.55;;;3.00;99.90;;;;;;5131647;27;20203;-71
2022/04/02 01:18:35;;;;;;;2.42;2.22;;;3.00;99.90;;;;;;5121957;27;20860;-72
2022/04/02 01:21:03;;;;;;;2.60;2.15;;;3.00;99.90;;;;;;5121527;27;20861;-76
2022/04/02 01:23:32;;;;;;;3.25;2.45;;;3.00;99.90;;;;;;5121464;27;20305;-71
2022/04/02 01:26:01;;;;;;;2.92;2.10;;;2.90;99.90;;;;;;5121945;27;20213;-72
2022/04/02 01:28:34;;;;;;;5.20;2.42;;;2.90;99.90;;;;;;5121397;27;20202;-73
2022/04/02 01:31:05;;;;;;;2.50;2.30;;;2.80;99.90;;;;;;5121555;27;20249;-73
2022/04/02 01:33:34;;;;;;;2.15;2.03;;;2.80;99.90;;;;;;5122373;27;20383;-72
2022/04/02 01:36:05;;;;;;;3.47;1.88;;;2.80;99.90;;;;;;5122487;27;20213;-73
2022/04/02 01:38:35;;;;;;;4.35;2.28;;;2.80;99.90;;;;;;5123441;27;20216;-73
2022/04/02 01:41:03;;;;;;;6.80;3.55;;;2.90;99.90;;;;;;5122504;27;20218;-72
2022/04/02 01:43:31;;;;;;;3.75;2.25;;;2.90;99.90;;;;;;5122254;27;20235;-72
2022/04/02 01:46:00;;;;;;;3.85;2.20;;;2.90;99.90;;;;;;5122213;27;20205;-72
2022/04/02 01:48:28;;;;;;;4.38;2.80;;;2.80;99.90;;;;;;5121599;27;20214;-73
2022/04/02 01:50:57;;;;;;;3.63;2.53;;;2.90;99.90;;;;;;5121622;27;20223;-72
2022/04/02 01:53:26;;;;;;;2.55;2.35;;;3.00;99.90;;;;;;5121460;27;20289;-72
2022/04/02 01:55:55;;;;;;;3.95;2.55;;;2.90;99.90;;;;;;5121731;27;20599;-71
2022/04/02 01:58:23;;;;;;;7.90;2.67;;;3.00;99.90;;;;;;5121459;27;20286;-72
2022/04/02 02:00:51;;;;;;;2.97;2.28;;;3.00;99.90;;;;;;5121623;27;20696;-73
2022/04/02 02:03:20;;;;;;;3.10;2.17;;;3.00;99.90;;;;;;5120986;27;20257;-71
2022/04/02 02:05:48;;;;;;;2.92;2.72;;;2.90;99.90;;;;;;5120613;27;20647;-73
2022/04/02 02:08:16;;;;;;;2.88;2.17;;;2.90;99.90;;;;;;5121942;27;20206;-72
2022/04/02 02:10:44;;;;;;;3.15;2.85;;;2.80;99.90;;;;;;5122353;27;20219;-71
2022/04/02 02:13:13;;;;;;;2.03;1.92;;;2.80;99.90;;;;;;5115282;27;20678;-71
2022/04/02 02:15:42;;;;;;;3.90;2.95;;;2.80;99.90;;;;;;5081061;28;20744;-71
2022/04/02 02:18:09;;;;;;;2.72;2.35;;;2.80;99.90;;;;;;5095066;28;20207;-71
2022/04/02 02:20:38;;;;;;;2.83;2.70;;;2.80;99.90;;;;;;5101346;28;20393;-72
2022/04/02 02:23:06;;;;;;;2.90;2.70;;;2.80;99.90;;;;;;5100429;28;20375;-72
2022/04/02 02:25:34;;;;;;;3.53;3.15;;;2.80;99.90;;;;;;5099735;28;20195;-71
2022/04/02 02:28:02;;;;;;;5.40;2.35;;;2.80;99.90;;;;;;5100206;28;20287;-71
2022/04/02 02:30:31;;;;;;;7.22;2.55;;;2.80;99.90;;;;;;5085432;28;20326;-72
2022/04/02 02:35:51;;;;;;;4.75;2.70;;;2.80;99.90;;;;;;5085964;28;20218;-73
2022/04/02 02:38:21;;;;;;;2.30;2.15;;;2.80;99.90;;;;;;5084930;28;20272;-74
2022/04/02 02:40:51;;;;;;;3.10;2.80;;;2.80;99.90;;;;;;5080748;28;20216;-73
2022/04/02 02:43:20;;;;;;;4.78;2.65;;;2.80;99.90;;;;;;5081006;28;20704;-72
2022/04/02 02:45:50;;;;;;;3.78;3.28;;;2.70;99.90;;;;;;5084535;28;20238;-71
2022/04/02 02:48:18;;;;;;;2.90;2.38;;;2.70;99.90;;;;;;5085512;28;20707;-74
2022/04/02 02:50:46;;;;;;;3.83;3.28;;;2.60;99.90;;;;;;5087105;28;20216;-72
2022/04/02 02:53:14;;;;;;;3.08;2.80;;;2.50;99.90;;;;;;5087786;28;20323;-74
2022/04/02 02:55:44;;;;;;;3.33;3.03;;;2.40;99.90;;;;;;5086368;28;20429;-73
2022/04/02 02:58:12;;;;;;;3.22;2.88;;;2.40;99.90;;;;;;5084409;28;20207;-71
2022/04/02 03:00:41;;;;;;;4.68;2.92;;;2.30;99.90;;;;;;5082855;28;20227;-71
2022/04/02 03:03:11;;;;;;;3.58;2.88;;;2.20;99.90;;;;;;5083194;28;20220;-73
2022/04/02 03:05:39;;;;;;;4.85;3.00;;;2.20;99.90;;;;;;5082292;28;20603;-76
2022/04/02 03:08:08;;;;;;;3.85;3.35;;;2.20;99.90;;;;;;5102959;28;20707;-72
2022/04/02 03:10:36;;;;;;;3.50;3.20;;;2.20;99.90;;;;;;5102597;27;20253;-70
2022/04/02 03:13:04;;;;;;;3.65;2.80;;;2.20;99.90;;;;;;5101990;28;20588;-73
2022/04/02 03:15:33;;;;;;;3.65;2.50;;;2.10;99.90;;;;;;5102780;28;20279;-74
2022/04/02 03:18:03;;;;;;;4.13;3.00;;;2.10;99.90;;;;;;5102695;27;20203;-73
2022/04/02 03:20:34;;;;;;;6.00;3.95;;;2.10;99.90;;;;;;5102577;28;20247;-72
2022/04/02 03:23:02;;;;;;;2.67;2.55;;;2.10;99.90;;;;;;5102042;27;20220;-72
2022/04/02 03:25:31;;;;;;;4.28;2.75;;;2.10;99.90;;;;;;5102264;28;20523;-72
2022/04/02 03:27:59;;;;;;;3.97;3.45;;;2.00;99.90;;;;;;5102604;28;20465;-72
2022/04/02 03:30:27;;;;;;;3.13;2.85;;;2.00;99.90;;;;;;5102811;28;20219;-71
2022/04/02 03:32:55;;;;;;;5.75;2.90;;;1.90;99.90;;;;;;5105986;27;20196;-74
2022/04/02 03:35:24;;;;;;;2.95;2.53;;;1.80;99.90;;;;;;5109913;28;20202;-71
2022/04/02 03:37:55;;;;;;;3.58;2.47;;;1.80;99.90;;;;;;5109723;28;20644;-72
2022/04/02 03:40:25;;;;;;;4.18;2.80;;;1.70;99.90;;;;;;5102621;28;20243;-73
2022/04/02 03:42:54;;;;;;;5.20;3.50;;;1.70;99.90;;;;;;5102418;28;20229;-72
2022/04/02 03:45:23;;;;;;;3.47;2.95;;;1.70;99.90;;;;;;5101775;28;20218;-72
2022/04/02 03:47:51;;;;;;;4.32;2.75;;;1.60;99.90;;;;;;5102262;28;20207;-71
2022/04/02 03:50:19;;;;;;;7.50;3.25;;;1.60;99.90;;;;;;5104294;28;20415;-71
2022/04/02 03:52:47;;;;;;;2.60;2.40;;;1.60;99.90;;;;;;5102448;28;20199;-74
2022/04/02 03:55:16;;;;;;;2.50;2.30;;;1.60;99.90;;;;;;5102768;28;20230;-72
2022/04/02 03:57:47;;;;;;;3.25;2.95;;;1.60;99.90;;;;;;5102310;28;20806;-72
2022/04/02 04:00:16;;;;;;;6.35;3.45;;;1.60;99.90;;;;;;5102990;28;20710;-71
2022/04/02 04:02:44;;;;;;;4.13;3.15;;;1.50;99.90;;;;;;5102181;28;20717;-72
2022/04/02 04:05:12;;;;;;;2.65;2.45;;;1.50;99.90;;;;;;5102256;28;20206;-71
2022/04/02 04:07:40;;;;;;;5.45;3.10;;;1.40;99.90;;;;;;5102434;28;20206;-71
2022/04/02 04:10:09;;;;;;;6.53;3.08;;;1.40;99.90;;;;;;5103207;27;20386;-73
2022/04/02 04:12:38;;;;;;;7.95;2.95;;;1.40;99.90;;;;;;5103563;28;20220;-73
2022/04/02 04:15:06;;;;;;;5.80;3.17;;;1.40;99.90;;;;;;5103203;28;20761;-73
2022/04/02 04:17:35;;;;;;;4.10;2.45;;;1.40;99.90;;;;;;5105586;27;20212;-71
2022/04/02 04:20:03;;;;;;;2.85;2.60;;;1.30;99.90;;;;;;5103299;28;20315;-72
2022/04/02 04:22:31;;;;;;;4.57;3.10;;;1.30;99.90;;;;;;5102487;28;20200;-73
2022/04/02 04:24:59;;;;;;;6.70;3.30;;;1.30;99.90;;;;;;5102366;27;20244;-74
2022/04/02 04:27:27;;;;;;;2.90;2.53;;;1.30;99.90;;;;;;5102916;28;20452;-71
2022/04/02 04:29:56;;;;;;;6.47;3.38;;;1.30;99.90;;;;;;5100196;28;20196;-74
2022/04/02 04:32:24;;;;;;;2.67;2.47;;;1.20;99.90;;;;;;5100744;28;20211;-72
2022/04/02 04:34:52;;;;;;;3.03;2.72;;;1.20;99.90;;;;;;5101635;28;20275;-73
2022/04/02 04:37:23;;;;;;;7.40;3.30;;;1.20;99.90;;;;;;5101561;28;20192;-69
2022/04/02 04:39:51;;;;;;;3.25;2.90;;;1.10;99.90;;;;;;5102102;28;20187;-71
2022/04/02 04:42:21;;;;;;;4.18;3.00;;;1.20;99.90;;;;;;5102107;28;20200;-71
2022/04/02 04:44:52;;;;;;;2.78;2.25;;;1.20;99.90;;;;;;5102178;28;20216;-71
2022/04/02 04:47:21;;;;;;;4.88;3.38;;;1.10;99.90;;;;;;5102134;28;20192;-73
2022/04/02 04:49:51;;;;;;;4.25;2.80;;;1.10;99.90;;;;;;5101898;28;20225;-73
2022/04/02 04:52:21;;;;;;;3.83;2.88;;;1.10;99.90;;;;;;5102121;28;20234;-74
2022/04/02 04:54:49;;;;;;;5.53;2.47;;;1.00;99.90;;;;;;5101408;28;20199;-70
2022/04/02 04:57:17;;;;;;;6.50;3.33;;;1.00;99.90;;;;;;5101849;28;20206;-70
2022/04/02 04:59:45;;;;;;;2.42;2.33;;;0.90;99.90;;;;;;5101407;28;20199;-75
2022/04/02 05:02:13;;;;;;;2.53;2.33;;;0.90;99.90;;;;;;5100035;28;20196;-72
2022/04/02 05:04:43;;;;;;;5.32;3.00;;;0.90;99.90;;;;;;5101624;28;20240;-72
2022/04/02 05:07:12;;;;;;;3.22;3.03;;;0.80;99.90;;;;;;5101929;28;20208;-72
2022/04/02 05:09:42;;;;;;;2.45;2.05;;;0.80;99.90;;;;;;5099882;28;20481;-70
2022/04/02 05:12:11;;;;;;;4.57;3.05;;;0.80;99.90;;;;;;5100185;28;20191;-75
2022/04/02 05:14:39;;;;;;;2.92;2.72;;;0.80;99.90;;;;;;5100342;28;20675;-70
2022/04/02 05:17:09;;;;;;;2.47;2.28;;;0.80;99.90;;;;;;5100271;28;20192;-72
2022/04/02 05:19:37;;;;;;;2.47;2.28;;;0.80;99.90;;;;;;5100530;28;20203;-73
2022/04/02 05:22:07;;;;;;;2.55;2.35;;;0.70;99.90;;;;;;5100439;28;20540;-72
2022/04/02 05:24:35;;;;;;;2.80;2.67;;;0.70;99.90;;;;;;5098058;28;20227;-72
2022/04/02 05:27:05;;;;;;;4.20;2.42;;;0.70;99.90;;;;;;5099693;28;20597;-73
2022/04/02 05:29:33;;;;;;;4.03;2.67;;;0.80;99.90;;;;;;5097363;28;20782;-73
2022/04/02 05:32:02;;;;;;;3.67;3.33;;;0.80;99.90;;;;;;5099157;27;20732;-74
2022/04/02 05:34:31;;;;;;;7.38;3.22;;;0.80;99.90;;;;;;5099190;28;20204;-72
2022/04/02 05:37:01;;;;;;;6.13;2.47;;;0.80;99.90;;;;;;5099494;28;20425;-72
2022/04/02 05:39:32;;;;;;;2.55;2.08;;;0.80;99.90;;;;;;5099140;28;20200;-73
2022/04/02 05:42:02;;;;;;;3.20;2.75;;;0.80;99.90;;;;;;5099643;28;20303;-72
2022/04/02 05:44:30;;;;;;;3.65;2.58;;;0.80;99.90;;;;;;5099507;28;20838;-75
2022/04/02 05:47:03;;;;;;;3.63;2.53;;;0.80;99.90;;;;;;5099442;28;20201;-75
2022/04/02 05:49:51;;;;;;;5.60;3.47;;;0.90;99.90;;;;;;5099414;28;20196;-74
2022/04/02 05:52:18;;;;;;;4.53;2.25;;;0.90;99.90;;;;;;5098257;28;20435;-72
2022/04/02 05:54:47;;;;;;;4.28;2.47;;;0.90;99.90;;;;;;5099851;28;20195;-73
2022/04/02 05:57:15;;;;;;;3.45;2.70;;;0.90;99.90;;;;;;5097906;28;20651;-73
2022/04/02 05:59:43;;;;;;;2.10;1.95;;;1.00;99.90;;;;;;5110168;28;20623;-74
2022/04/02 06:02:13;;;;;;;4.05;2.88;;;1.00;99.90;;;;;;5104429;28;20191;-73
2022/04/02 06:04:41;;;;;;;2.80;2.13;;;1.00;99.90;;;;;;5098906;28;20216;-73
2022/04/02 06:07:11;;;;;;;3.72;2.35;;;1.00;99.90;;;;;;5099196;28;20278;-71
2022/04/02 06:09:39;;;;;;;3.10;2.30;;;1.10;99.90;;;;;;5096618;27;20747;-70
2022/04/02 06:12:09;;;;;;;3.10;2.45;;;1.20;99.90;;;;;;5096217;28;20208;-72
2022/04/02 06:14:40;;;;;;;2.13;1.95;;;1.20;99.90;;;;;;5098277;28;20311;-68
2022/04/02 06:17:08;;;;;;;3.13;2.20;;;1.30;99.90;;;;;;5099122;28;20192;-69
2022/04/02 06:19:36;;;;;;;3.85;2.47;;;1.40;99.90;;;;;;5098987;28;20283;-68
2022/04/02 06:22:07;;;;;;;1.83;1.45;;;1.50;99.90;;;;;;5099309;28;20234;-66
2022/04/02 06:24:35;;;;;;;1.90;1.80;;;1.60;99.90;;;;;;5096957;28;20264;-69
2022/04/02 06:27:04;;;;;;;2.15;1.95;;;1.70;99.90;;;;;;5098290;28;20775;-70
2022/04/02 06:29:33;;;;;;;2.38;2.00;;;1.70;99.90;;;;;;5095232;28;20630;-73
2022/04/02 06:32:01;;;;;;;2.35;1.60;;;1.70;99.90;;;;;;5097386;28;20219;-75
2022/04/02 06:34:29;;;;;;;2.40;1.83;;;1.70;99.90;;;;;;5098512;28;20192;-73
2022/04/02 06:36:57;;;;;;;1.70;1.60;;;1.80;99.90;;;;;;5098283;28;20257;-74
2022/04/02 06:39:25;;;;;;;2.75;2.20;;;1.80;99.90;;;;;;5097978;28;20534;-73
2022/04/02 06:41:55;;;;;;;1.83;1.73;;;1.80;99.90;;;;;;5097799;28;20216;-74
2022/04/02 06:44:23;;;;;;;1.85;1.75;;;1.90;99.90;;;;;;5098090;28;20216;-75
2022/04/02 06:46:56;;;;;;;3.22;1.70;;;1.90;99.90;;;;;;5101427;28;20206;-74
2022/04/02 06:49:27;;;;;;;1.70;1.60;;;1.90;99.90;;;;;;5106172;28;20206;-75
2022/04/02 06:51:57;;;;;;;6.65;2.05;;;2.00;99.90;;;;;;5102904;28;20464;-74
2022/04/02 06:54:26;;;;;;;2.70;1.90;;;2.00;99.90;;;;;;5102991;28;20275;-76
2022/04/02 06:56:57;;;;;;;2.00;1.80;;;2.00;99.90;;;;;;5101420;27;20201;-74
2022/04/02 06:59:27;;;;;;;1.75;1.65;;;2.10;99.90;;;;;;5100382;28;20222;-75
2022/04/02 07:01:56;;;;;;;2.58;1.67;;;2.10;99.90;;;;;;5099382;28;20216;-74
2022/04/02 07:04:26;;;;;;;2.05;1.70;;;2.10;99.90;;;;;;5098498;28;20215;-74
2022/04/02 07:06:54;;;;;;;2.53;1.80;;;2.20;99.90;;;;;;5098926;27;20211;-73
2022/04/02 07:09:22;;;;;;;2.65;1.70;;;2.20;99.90;;;;;;5098964;28;20192;-73
2022/04/02 07:11:50;;;;;;;3.00;1.75;;;2.20;99.90;;;;;;5098091;28;20344;-73
2022/04/02 07:14:17;;;;;;;2.30;1.40;;;2.20;99.90;;;;;;5100224;28;20196;-72
2022/04/02 07:16:45;;;;;;;2.90;1.20;;;2.30;99.90;;;;;;5099516;28;20295;-72
2022/04/02 07:19:15;;;;;;;2.95;2.25;;;2.40;99.90;;;;;;5098819;28;20286;-73
2022/04/02 07:21:44;;;;;;;1.73;1.60;;;2.50;99.90;;;;;;5099180;28;20584;-73
2022/04/02 07:24:17;;;;;;;2.85;1.30;;;2.50;99.90;;;;;;5093753;28;20674;-72
2022/04/02 07:26:45;;;;;;;6.15;1.77;;;2.50;99.90;;;;;;5078743;28;20532;-73
2022/04/02 07:29:14;;;;;;;4.15;1.85;;;2.50;99.90;;;;;;5082920;28;20202;-72
2022/04/02 07:31:44;;;;;;;2.47;1.30;;;2.70;99.90;;;;;;5099377;28;20790;-71
2022/04/02 07:34:19;;;;;;;1.27;1.17;;;2.70;99.90;;;;;;5097681;28;20225;-72
2022/04/02 07:36:59;;;;;;;2.35;2.08;;;2.70;99.90;;;;;;5084581;28;20250;-72
2022/04/02 07:39:35;;;;;;;2.75;1.60;;;2.80;99.90;;;;;;5090006;28;20208;-72
2022/04/02 07:42:10;;;;;;;1.80;1.58;;;2.80;99.90;;;;;;5089962;28;20191;-73
2022/04/02 07:44:54;;;;;;;1.70;1.48;;;3.00;99.90;;;;;;5102158;28;20218;-73
2022/04/02 07:47:25;;;;;;;1.60;1.23;;;3.00;99.90;;;;;;5102122;28;20199;-73
2022/04/02 07:49:59;;;;;;;2.38;1.00;;;3.10;99.90;;;;;;5099394;27;20200;-73
2022/04/02 07:52:28;;;;;;;1.60;1.50;;;3.10;99.90;;;;;;5086863;28;20674;-73
2022/04/02 07:55:05;;;;;;;1.38;1.17;;;3.10;99.90;;;;;;5094642;28;20207;-72
2022/04/02 07:57:38;;;;;;;2.47;1.20;;;3.20;98.30;;;;;;5085353;28;20295;-72
2022/04/02 08:00:10;;;;;;;0.80;0.80;;;3.20;97.90;;;;;;5098414;27;20218;-71
2022/04/02 08:02:39;;;;;;;1.25;0.93;;;3.20;97.10;;;;;;5101401;28;20352;-73
2022/04/02 08:05:11;;;;;;;1.02;1.00;;;3.30;96.40;;;;;;5101280;28;20215;-71
2022/04/02 08:07:43;;;;;;;1.67;0.95;;;3.30;96.90;;;;;;5081608;28;20208;-72
2022/04/02 08:10:12;;;;;;;0.65;0.65;;;3.40;97.20;;;;;;5088655;27;20699;-70
2022/04/02 08:12:41;;;;;;;0.90;0.90;;;3.40;97.10;;;;;;5086323;28;20200;-72
2022/04/02 08:15:12;;;;;;;1.02;0.80;;;3.40;96.00;;;;;;5091721;28;20429;-72
2022/04/02 08:17:42;;;;;;;1.27;1.15;;;3.40;95.30;;;;;;5101770;28;20200;-72
2022/04/02 08:20:15;;;;;;;1.00;1.00;;;3.50;95.10;;;;;;5102517;28;20224;-72
2022/04/02 08:22:43;;;;;;;1.40;0.90;;;3.50;95.20;;;;;;5107293;27;20237;-73
2022/04/02 08:25:12;;;;;;;0.80;0.70;;;3.50;95.00;;;;;;5096323;28;20211;-72
2022/04/02 08:27:55;;;;;;;1.10;1.02;;;3.60;94.40;;;;;;5107851;28;20207;-72
2022/04/02 08:30:31;;;;;;;0.70;0.70;;;3.60;94.20;;;;;;5106312;28;20228;-72
2022/04/02 08:33:26;;;;;;;1.25;1.10;;;3.60;93.90;;;;;;5106622;28;20283;-72
2022/04/02 08:36:03;;;;;;;0.88;0.80;;;3.50;93.80;;;;;;5090266;28;20377;-72
2022/04/02 08:38:41;;;;;;;0.90;0.90;;;3.60;93.80;;;;;;5098365;28;20715;-74
2022/04/02 08:41:49;;;;;;;1.30;0.93;;;3.60;94.20;;;;;;5102287;28;20479;-73
2022/04/02 08:44:48;;;;;;;0.70;0.70;;;3.80;93.10;;;;;;5101072;27;20249;-73
2022/04/02 08:47:40;;;;;;;0.60;0.60;;;3.80;92.90;;;;;;5100339;28;20282;-71
2022/04/02 08:50:10;;;;;;;0.60;0.57;;;3.80;93.00;;;;;;5107357;28;20222;-72
2022/04/02 08:52:52;;;;;;;2.25;0.70;;;3.80;92.90;;;;;;5105373;28;20221;-72
2022/04/02 08:55:23;;;;;;;1.40;0.90;;;3.80;92.20;;;;;;5101506;28;20188;-70
2022/04/02 08:58:19;;;;;;;2.67;0.98;;;3.80;92.00;;;;;;5100796;28;20591;-73
2022/04/02 09:01:03;;;;;;;0.80;0.80;;;3.90;92.00;;;;;;5099725;28;20240;-72
2022/04/02 09:04:02;;;;;;;1.38;1.27;;;3.90;92.00;;;;;;5098932;28;20205;-73
2022/04/02 09:07:03;;;;;;;0.80;0.80;;;4.00;91.90;;;;;;5096993;28;20834;-71
2022/04/02 09:09:55;;;;;;;1.45;1.35;;;4.10;91.60;;;;;;5102124;28;20207;-74
2022/04/02 09:12:36;;;;;;;1.17;1.08;;;4.10;91.90;;;;;;5103135;28;20270;-71
2022/04/02 09:15:09;;;;;;;1.17;1.13;;;4.20;92.00;;;;;;5103217;28;20282;-71
2022/04/02 09:18:01;;;;;;;2.30;1.10;;;4.20;91.50;;;;;;5102966;28;20283;-72
2022/04/02 09:20:44;;;;;;;2.53;1.20;;;4.20;91.80;;;;;;5100768;27;20650;-73
2022/04/02 09:23:15;;;;;;;1.17;1.10;;;4.30;93.50;;;;;;5102540;28;20826;-73
2022/04/02 09:26:23;;;;;;;2.45;0.82;;;4.30;91.60;;;;;;5100860;28;20304;-71
2022/04/02 09:29:12;;;;;;;1.15;1.05;;;4.40;91.40;;;;;;5098129;28;20231;-70
2022/04/02 09:32:23;;;;;;;1.05;1.00;;;4.50;91.20;;;;;;5101405;27;20303;-71
2022/04/02 09:35:21;;;;;;;1.58;0.95;;;4.50;91.20;;;;;;5098622;28;20184;-71
2022/04/02 09:38:20;;;;;;;0.85;0.85;;;4.70;91.00;;;;;;5101090;28;20245;-71
2022/04/02 09:40:50;;;;;;;0.82;0.73;;;4.80;90.70;;;;;;5100023;28;20226;-69
2022/04/02 09:43:27;;;;;;;1.30;1.20;;;4.80;90.80;;;;;;5100433;28;20223;-68
2022/04/02 09:46:14;;;;;;;1.65;1.15;;;4.70;90.80;;;;;;5100215;28;20222;-70
2022/04/02 09:48:52;;;;;;;1.13;1.13;;;4.70;90.70;;;;;;5099546;28;20491;-67
2022/04/02 09:51:22;;;;;;;1.23;1.23;;;4.80;90.30;;;;;;5098925;28;20698;-72
2022/04/02 09:54:02;;;;;;;1.45;1.35;;;4.90;90.30;;;;;;5097190;28;20471;-73
2022/04/02 09:56:41;;;;;;;1.30;1.20;;;4.90;90.60;;;;;;5100602;27;20195;-71
2022/04/02 09:59:19;;;;;;;1.67;1.35;;;4.90;90.30;;;;;;5098652;28;20199;-70
2022/04/02 10:01:59;;;;;;;1.48;1.02;;;4.90;90.20;;;;;;5100701;28;20487;-71
2022/04/02 10:04:39;;;;;;;1.20;0.90;;;5.00;89.60;;;;;;5100980;28;20264;-69
2022/04/02 10:07:17;;;;;;;1.42;1.20;;;5.10;88.80;;;;;;5100516;28;20306;-73
2022/04/02 10:09:50;;;;;;;1.02;1.02;;;5.10;88.90;;;;;;5100966;28;20654;-72
2022/04/02 10:12:19;;;;;;;0.73;0.73;;;5.20;89.70;;;;;;5096630;28;20763;-71
2022/04/02 10:14:54;;;;;;;1.27;1.20;;;5.30;89.30;;;;;;5099804;28;20200;-70
2022/04/02 10:17:28;;;;;;;1.13;1.13;;;5.30;88.10;;;;;;5100377;28;20191;-70
2022/04/02 10:19:56;;;;;;;1.20;0.90;;;5.30;88.80;;;;;;5091557;28;20297;-71
2022/04/02 10:22:38;;;;;;;1.67;1.25;;;5.40;89.10;;;;;;5080402;28;20222;-73
2022/04/02 10:25:09;;;;;;;1.25;1.00;;;5.50;88.50;;;;;;5079731;28;20203;-71
2022/04/02 10:27:38;;;;;;;1.00;1.00;;;5.60;88.30;;;;;;5089161;27;20315;-70
2022/04/02 10:30:09;;;;;;;1.52;1.42;;;5.70;88.20;;;;;;5079106;28;20694;-71
2022/04/02 10:32:55;;;;;;;1.50;1.20;;;5.90;88.60;;;;;;5087561;28;20204;-72
2022/04/02 10:35:25;;;;;;;0.80;0.73;;;6.10;89.30;;;;;;5079480;28;20254;-73
2022/04/02 10:38:06;;;;;;;1.17;1.00;;;6.30;87.60;;;;;;5079538;28;20200;-71
2022/04/02 10:40:42;;;;;;;1.33;1.33;;;6.30;89.00;;;;;;5079947;28;20477;-72
2022/04/02 10:43:18;;;;;;;1.27;1.17;;;6.40;87.90;;;;;;5080079;28;20203;-71
2022/04/02 10:45:49;;;;;;;1.85;1.13;;;6.40;87.60;;;;;;5092640;27;20461;-71
2022/04/02 10:48:26;;;;;;;1.77;1.17;;;6.50;88.00;;;;;;5089351;28;20228;-70
2022/04/02 10:50:55;;;;;;;1.58;1.17;;;6.60;88.50;;;;;;5084785;28;20227;-70
2022/04/02 10:53:24;;;;;;;1.13;1.08;;;6.70;88.20;;;;;;5101338;28;20200;-71
2022/04/02 10:55:59;;;;;;;2.28;1.17;;;6.60;88.50;;;;;;5094901;28;20417;-70
2022/04/02 10:58:34;;;;;;;1.30;1.20;;;6.40;87.90;;;;;;5084369;28;20286;-74
2022/04/02 11:01:06;;;;;;;0.95;0.95;;;6.30;87.70;;;;;;5095636;28;20227;-75
2022/04/02 11:03:40;;;;;;;2.70;1.08;;;6.00;85.70;;;;;;5089023;28;20437;-73
2022/04/02 11:06:08;;;;;;;1.70;1.60;;;5.90;85.30;;;;;;5080146;28;20687;-75
2022/04/02 11:08:37;;;;;;;1.35;1.25;;;5.80;86.00;;;;;;5083537;28;20619;-74
2022/04/02 11:11:20;;;;;;;1.20;1.10;;;5.70;86.90;;;;;;5084036;28;20239;-72
2022/04/02 11:13:52;;;;;;;1.65;1.52;;;5.50;87.50;;;;;;5097670;28;20210;-72
2022/04/02 11:16:23;;;;;;;1.30;1.30;;;5.40;88.30;;;;;;5092679;28;20488;-71
2022/04/02 11:21:53;;;;;;;1.35;1.25;;;5.60;86.90;;;;;;5094409;28;20734;-70
2022/04/02 11:24:26;;;;;;;1.40;1.40;;;5.80;86.50;;;;;;5083441;28;20426;-72
2022/04/02 11:26:56;;;;;;;1.50;1.40;;;5.90;86.40;;;;;;5083117;28;20396;-72
2022/04/02 11:29:25;;;;;;;1.27;1.17;;;6.00;84.90;;;;;;5095587;28;20602;-72
2022/04/02 11:31:56;;;;;;;1.50;1.40;;;6.10;84.00;;;;;;5082205;28;20262;-70
2022/04/02 11:34:26;;;;;;;2.25;1.10;;;6.20;83.80;;;;;;5080725;28;20969;-73
2022/04/02 11:37:00;;;;;;;1.10;0.98;;;6.20;85.00;;;;;;5081398;28;20579;-71
2022/04/02 11:39:37;;;;;;;2.58;1.25;;;6.50;86.30;;;;;;5082479;28;20709;-73
2022/04/02 11:42:08;;;;;;;1.45;1.35;;;6.80;85.50;;;;;;5082050;28;20295;-71
2022/04/02 11:44:38;;;;;;;1.63;1.10;;;7.10;84.40;;;;;;5082896;28;20287;-72
2022/04/02 11:47:08;;;;;;;1.30;1.17;;;7.30;84.00;;;;;;5082672;28;20252;-72
2022/04/02 11:49:39;;;;;;;1.50;1.40;;;7.40;81.10;;;;;;5082384;28;20200;-72
2022/04/02 11:52:09;;;;;;;1.70;1.10;;;7.30;81.70;;;;;;5083232;28;20207;-70
2022/04/02 11:54:41;;;;;;;1.05;0.95;;;7.20;82.80;;;;;;5083974;28;20881;-71
2022/04/02 11:57:11;;;;;;;1.70;1.60;;;7.20;82.70;;;;;;5083560;28;20260;-71
2022/04/02 11:59:50;;;;;;;1.10;1.10;;;7.20;83.50;;;;;;5083759;28;20275;-71
2022/04/02 12:02:35;;;;;;;1.77;1.20;;;7.10;83.20;;;;;;5083701;28;20817;-70
2022/04/02 12:05:09;;;;;;;1.48;1.45;;;7.10;84.10;;;;;;5087650;28;20196;-72
2022/04/02 12:07:43;;;;;;;1.90;1.70;;;7.10;83.40;;;;;;5084961;28;20234;-71
2022/04/02 12:10:32;;;;;;;1.33;1.23;;;7.10;84.00;;;;;;5083348;28;20235;-73
2022/04/02 12:13:03;;;;;;;2.55;1.70;;;7.00;84.30;;;;;;5083889;28;20206;-71
2022/04/02 12:15:31;;;;;;;1.40;1.00;;;7.10;84.80;;;;;;5082674;28;20215;-72
2022/04/02 12:18:06;;;;;;;2.08;1.98;;;7.10;83.80;;;;;;5084222;28;20201;-71
2022/04/02 12:20:36;;;;;;;4.07;1.25;;;7.00;84.60;;;;;;5082138;28;20314;-71
2022/04/02 12:23:12;;;;;;;1.55;1.55;;;7.00;86.40;;;;;;5082296;28;20364;-72
2022/04/02 12:25:44;;;;;;;1.50;1.40;;;7.00;85.60;;;;;;5082119;28;20299;-72
2022/04/02 12:28:16;;;;;;;1.80;1.70;;;7.00;85.50;;;;;;5081584;28;20251;-72
2022/04/02 12:30:48;;;;;;;3.72;1.63;;;7.00;86.60;;;;;;5081301;28;20216;-72
2022/04/02 12:33:19;;;;;;;1.75;1.50;;;7.00;86.90;;;;;;5081337;28;20204;-73
2022/04/02 12:35:56;;;;;;;3.67;1.50;;;6.90;86.40;;;;;;5080878;28;20561;-72
2022/04/02 12:38:28;;;;;;;1.30;1.30;;;7.00;85.30;;;;;;5082182;28;20200;-72
2022/04/02 12:40:57;;;;;;;1.42;1.35;;;7.00;84.50;;;;;;5082682;28;20278;-72
2022/04/02 12:43:28;;;;;;;2.10;1.55;;;7.00;85.50;;;;;;5081878;28;20245;-72
2022/04/02 12:45:56;;;;;;;1.67;1.58;;;7.00;86.20;;;;;;5205347;22;20233;-71
2022/04/02 12:48:27;;;;;;;3.88;1.48;;;6.90;86.50;;;;;;5058953;28;20482;-72
2022/04/02 12:50:57;;;;;;;1.88;1.77;;;6.90;86.80;;;;;;5059826;28;20213;-71
2022/04/02 12:53:30;;;;;;;1.70;1.60;;;6.70;87.20;;;;;;5061600;28;20305;-72
2022/04/02 12:55:59;;;;;;;1.60;1.42;;;6.50;87.60;;;;;;5060512;28;20545;-72
2022/04/02 12:58:32;;;;;;;1.50;1.50;;;6.50;88.30;;;;;;5059603;28;20783;-72
2022/04/02 13:01:11;;;;;;;1.50;1.20;;;6.60;89.00;;;;;;5060712;28;20221;-71
2022/04/02 13:03:50;;;;;;;1.45;1.30;;;6.90;87.50;;;;;;5059886;28;20730;-72
2022/04/02 13:06:20;;;;;;;1.48;1.48;;;7.00;85.00;;;;;;5060223;28;20207;-71
2022/04/02 13:08:57;;;;;;;1.75;1.55;;;7.00;84.90;;;;;;5059633;28;20734;-72
2022/04/02 13:11:40;;;;;;;1.75;1.38;;;6.90;85.30;;;;;;5059115;28;20228;-71
2022/04/02 13:14:13;;;;;;;2.50;1.80;;;6.70;86.00;;;;;;5061993;28;20201;-72
2022/04/02 13:16:46;;;;;;;2.92;1.52;;;6.60;87.00;;;;;;5061773;28;20478;-71
2022/04/02 13:22:07;;;;;;;1.73;1.63;;;6.80;85.30;;;;;;5060418;28;20478;-69
2022/04/02 13:24:55;;;;;;;1.73;1.42;;;6.80;85.50;;;;;;5060300;28;20411;-71
2022/04/02 13:27:56;;;;;;;1.30;1.15;;;6.80;85.00;;;;;;5058699;28;20288;-72
2022/04/02 13:30:33;;;;;;;1.08;1.08;;;6.80;85.30;;;;;;5057881;28;20428;-72
2022/04/02 13:33:38;;;;;;;1.33;1.10;;;6.70;85.70;;;;;;5059389;28;20611;-71